sensor_id;sensor_type;location;lat;lon;timestamp;P1;durP1;ratioP1;P2;durP2;ratioP2
37645;SDS011;23489;49.600;6.138;2023-02-01T00:01:54;19.77;;;10.25;;
37645;SDS011;23489;49.600;6.138;2023-02-01T00:04:20;15.85;;;8.63;;
37645;SDS011;23489;49.600;6.138;2023-02-01T00:06:46;13.45;;;8.85;;
37645;SDS011;23489;49.600;6.138;2023-02-01T00:09:12;18.20;;;9.20;;
37645;SDS011;23489;49.600;6.138;2023-02-01T00:11:38;17.35;;;9.10;;
37645;SDS011;23489;49.600;6.138;2023-02-01T00:14:04;16.25;;;8.90;;
37645;SDS011;23489;49.600;6.138;2023-02-01T00:16:30;18.35;;;9.75;;
37645;SDS011;23489;49.600;6.138;2023-02-01T00:19:04;19.90;;;9.82;;
37645;SDS011;23489;49.600;6.138;2023-02-01T00:21:31;18.20;;;9.77;;
37645;SDS011;23489;49.600;6.138;2023-02-01T00:23:57;19.77;;;10.27;;
37645;SDS011;23489;49.600;6.138;2023-02-01T00:26:26;18.48;;;11.30;;
37645;SDS011;23489;49.600;6.138;2023-02-01T00:28:57;17.88;;;9.82;;
37645;SDS011;23489;49.600;6.138;2023-02-01T00:31:22;20.75;;;10.80;;
37645;SDS011;23489;49.600;6.138;2023-02-01T00:33:48;23.02;;;10.65;;
37645;SDS011;23489;49.600;6.138;2023-02-01T00:36:14;17.02;;;9.32;;
37645;SDS011;23489;49.600;6.138;2023-02-01T00:38:41;22.20;;;10.35;;
37645;SDS011;23489;49.600;6.138;2023-02-01T00:41:08;22.45;;;10.30;;
37645;SDS011;23489;49.600;6.138;2023-02-01T00:43:35;17.38;;;9.90;;
37645;SDS011;23489;49.600;6.138;2023-02-01T00:46:01;18.55;;;10.00;;
37645;SDS011;23489;49.600;6.138;2023-02-01T00:48:26;17.90;;;9.85;;
37645;SDS011;23489;49.600;6.138;2023-02-01T00:50:52;20.05;;;9.95;;
37645;SDS011;23489;49.600;6.138;2023-02-01T00:53:18;16.48;;;9.52;;
37645;SDS011;23489;49.600;6.138;2023-02-01T00:55:47;17.52;;;9.38;;
37645;SDS011;23489;49.600;6.138;2023-02-01T00:58:13;19.65;;;10.70;;
37645;SDS011;23489;49.600;6.138;2023-02-01T01:00:39;14.85;;;9.75;;
37645;SDS011;23489;49.600;6.138;2023-02-01T01:03:05;16.25;;;9.65;;
37645;SDS011;23489;49.600;6.138;2023-02-01T01:05:48;19.50;;;10.50;;
37645;SDS011;23489;49.600;6.138;2023-02-01T01:08:15;17.80;;;10.05;;
37645;SDS011;23489;49.600;6.138;2023-02-01T01:10:41;19.60;;;9.57;;
37645;SDS011;23489;49.600;6.138;2023-02-01T01:13:08;21.30;;;10.00;;
37645;SDS011;23489;49.600;6.138;2023-02-01T01:15:37;20.73;;;10.02;;
37645;SDS011;23489;49.600;6.138;2023-02-01T01:18:04;16.75;;;9.80;;
37645;SDS011;23489;49.600;6.138;2023-02-01T01:20:30;21.95;;;9.10;;
37645;SDS011;23489;49.600;6.138;2023-02-01T01:22:59;17.45;;;9.27;;
37645;SDS011;23489;49.600;6.138;2023-02-01T01:25:25;16.55;;;10.65;;
37645;SDS011;23489;49.600;6.138;2023-02-01T01:27:51;16.30;;;9.55;;
37645;SDS011;23489;49.600;6.138;2023-02-01T01:30:16;15.85;;;8.52;;
37645;SDS011;23489;49.600;6.138;2023-02-01T01:32:42;15.77;;;8.88;;
37645;SDS011;23489;49.600;6.138;2023-02-01T01:35:08;14.98;;;9.38;;
37645;SDS011;23489;49.600;6.138;2023-02-01T01:37:35;16.00;;;8.98;;
37645;SDS011;23489;49.600;6.138;2023-02-01T01:40:01;16.73;;;9.30;;
37645;SDS011;23489;49.600;6.138;2023-02-01T01:42:29;16.27;;;9.30;;
37645;SDS011;23489;49.600;6.138;2023-02-01T01:44:59;17.50;;;9.48;;
37645;SDS011;23489;49.600;6.138;2023-02-01T01:47:44;20.42;;;9.80;;
37645;SDS011;23489;49.600;6.138;2023-02-01T01:50:14;17.25;;;9.32;;
37645;SDS011;23489;49.600;6.138;2023-02-01T01:52:46;18.60;;;9.75;;
37645;SDS011;23489;49.600;6.138;2023-02-01T01:55:14;18.98;;;8.80;;
37645;SDS011;23489;49.600;6.138;2023-02-01T01:57:42;16.92;;;9.07;;
37645;SDS011;23489;49.600;6.138;2023-02-01T02:00:14;15.77;;;9.07;;
37645;SDS011;23489;49.600;6.138;2023-02-01T02:02:44;13.85;;;8.90;;
37645;SDS011;23489;49.600;6.138;2023-02-01T02:05:13;14.15;;;9.00;;
37645;SDS011;23489;49.600;6.138;2023-02-01T02:07:42;17.80;;;8.95;;
37645;SDS011;23489;49.600;6.138;2023-02-01T02:10:12;13.35;;;8.77;;
37645;SDS011;23489;49.600;6.138;2023-02-01T02:12:39;16.63;;;8.52;;
37645;SDS011;23489;49.600;6.138;2023-02-01T02:15:07;17.73;;;8.65;;
37645;SDS011;23489;49.600;6.138;2023-02-01T02:17:44;15.82;;;8.35;;
37645;SDS011;23489;49.600;6.138;2023-02-01T02:26:02;16.33;;;8.80;;
37645;SDS011;23489;49.600;6.138;2023-02-01T02:34:24;19.55;;;9.32;;
37645;SDS011;23489;49.600;6.138;2023-02-01T02:40:26;18.45;;;8.60;;
37645;SDS011;23489;49.600;6.138;2023-02-01T02:43:08;15.15;;;8.93;;
37645;SDS011;23489;49.600;6.138;2023-02-01T02:49:20;16.98;;;9.50;;
37645;SDS011;23489;49.600;6.138;2023-02-01T02:51:52;16.88;;;8.95;;
37645;SDS011;23489;49.600;6.138;2023-02-01T02:54:45;19.90;;;9.07;;
37645;SDS011;23489;49.600;6.138;2023-02-01T03:00:35;18.80;;;9.38;;
37645;SDS011;23489;49.600;6.138;2023-02-01T03:03:20;18.00;;;8.85;;
37645;SDS011;23489;49.600;6.138;2023-02-01T03:06:07;17.17;;;8.57;;
37645;SDS011;23489;49.600;6.138;2023-02-01T03:08:39;11.25;;;7.88;;
37645;SDS011;23489;49.600;6.138;2023-02-01T03:11:11;14.50;;;8.65;;
37645;SDS011;23489;49.600;6.138;2023-02-01T03:13:52;15.20;;;8.18;;
37645;SDS011;23489;49.600;6.138;2023-02-01T03:21:32;19.05;;;9.48;;
37645;SDS011;23489;49.600;6.138;2023-02-01T03:24:12;15.57;;;8.38;;
37645;SDS011;23489;49.600;6.138;2023-02-01T03:26:41;13.57;;;7.85;;
37645;SDS011;23489;49.600;6.138;2023-02-01T03:29:14;14.40;;;8.80;;
37645;SDS011;23489;49.600;6.138;2023-02-01T03:31:46;20.33;;;10.02;;
37645;SDS011;23489;49.600;6.138;2023-02-01T03:34:12;19.45;;;9.57;;
37645;SDS011;23489;49.600;6.138;2023-02-01T03:36:48;17.23;;;9.02;;
37645;SDS011;23489;49.600;6.138;2023-02-01T03:39:29;20.58;;;9.13;;
37645;SDS011;23489;49.600;6.138;2023-02-01T03:42:08;21.23;;;9.18;;
37645;SDS011;23489;49.600;6.138;2023-02-01T03:44:57;18.50;;;9.57;;
37645;SDS011;23489;49.600;6.138;2023-02-01T03:47:41;20.85;;;9.88;;
37645;SDS011;23489;49.600;6.138;2023-02-01T03:50:10;15.73;;;9.98;;
37645;SDS011;23489;49.600;6.138;2023-02-01T03:55:17;19.13;;;9.90;;
37645;SDS011;23489;49.600;6.138;2023-02-01T03:57:48;19.40;;;9.63;;
37645;SDS011;23489;49.600;6.138;2023-02-01T04:00:23;22.17;;;9.00;;
37645;SDS011;23489;49.600;6.138;2023-02-01T04:02:52;14.15;;;8.32;;
37645;SDS011;23489;49.600;6.138;2023-02-01T04:05:19;14.43;;;8.63;;
37645;SDS011;23489;49.600;6.138;2023-02-01T04:07:53;18.05;;;8.70;;
37645;SDS011;23489;49.600;6.138;2023-02-01T04:10:19;17.70;;;9.20;;
37645;SDS011;23489;49.600;6.138;2023-02-01T04:12:44;18.15;;;7.95;;
37645;SDS011;23489;49.600;6.138;2023-02-01T04:15:10;16.80;;;8.73;;
37645;SDS011;23489;49.600;6.138;2023-02-01T04:17:36;16.75;;;8.32;;
37645;SDS011;23489;49.600;6.138;2023-02-01T04:20:02;16.85;;;8.57;;
37645;SDS011;23489;49.600;6.138;2023-02-01T04:22:30;17.58;;;8.35;;
37645;SDS011;23489;49.600;6.138;2023-02-01T04:24:55;19.80;;;8.90;;
37645;SDS011;23489;49.600;6.138;2023-02-01T04:27:21;21.17;;;8.85;;
37645;SDS011;23489;49.600;6.138;2023-02-01T04:29:47;20.20;;;8.35;;
37645;SDS011;23489;49.600;6.138;2023-02-01T04:32:14;19.15;;;7.97;;
37645;SDS011;23489;49.600;6.138;2023-02-01T04:34:41;15.77;;;8.80;;
37645;SDS011;23489;49.600;6.138;2023-02-01T04:37:06;23.35;;;8.90;;
37645;SDS011;23489;49.600;6.138;2023-02-01T04:39:32;16.50;;;7.93;;
37645;SDS011;23489;49.600;6.138;2023-02-01T04:41:58;16.15;;;7.50;;
37645;SDS011;23489;49.600;6.138;2023-02-01T04:44:24;17.77;;;7.90;;
37645;SDS011;23489;49.600;6.138;2023-02-01T04:46:50;14.77;;;6.90;;
37645;SDS011;23489;49.600;6.138;2023-02-01T04:49:16;15.88;;;7.00;;
37645;SDS011;23489;49.600;6.138;2023-02-01T04:51:42;17.33;;;7.47;;
37645;SDS011;23489;49.600;6.138;2023-02-01T04:54:08;17.55;;;7.13;;
37645;SDS011;23489;49.600;6.138;2023-02-01T04:56:36;17.98;;;5.95;;
37645;SDS011;23489;49.600;6.138;2023-02-01T04:59:02;16.77;;;7.03;;
37645;SDS011;23489;49.600;6.138;2023-02-01T05:01:28;16.85;;;6.55;;
37645;SDS011;23489;49.600;6.138;2023-02-01T05:03:54;17.60;;;6.13;;
37645;SDS011;23489;49.600;6.138;2023-02-01T05:06:20;14.63;;;4.97;;
37645;SDS011;23489;49.600;6.138;2023-02-01T05:08:46;23.02;;;6.75;;
37645;SDS011;23489;49.600;6.138;2023-02-01T05:11:12;15.05;;;5.25;;
37645;SDS011;23489;49.600;6.138;2023-02-01T05:13:58;20.30;;;5.82;;
37645;SDS011;23489;49.600;6.138;2023-02-01T05:16:24;11.65;;;5.53;;
37645;SDS011;23489;49.600;6.138;2023-02-01T05:18:50;15.68;;;6.43;;
37645;SDS011;23489;49.600;6.138;2023-02-01T05:21:16;12.10;;;5.30;;
37645;SDS011;23489;49.600;6.138;2023-02-01T05:23:41;13.80;;;5.30;;
37645;SDS011;23489;49.600;6.138;2023-02-01T05:26:25;21.60;;;6.65;;
37645;SDS011;23489;49.600;6.138;2023-02-01T05:28:51;21.38;;;5.50;;
37645;SDS011;23489;49.600;6.138;2023-02-01T05:31:17;16.88;;;5.22;;
37645;SDS011;23489;49.600;6.138;2023-02-01T05:33:42;14.45;;;4.75;;
37645;SDS011;23489;49.600;6.138;2023-02-01T05:36:08;11.07;;;4.95;;
37645;SDS011;23489;49.600;6.138;2023-02-01T05:38:34;18.73;;;5.68;;
37645;SDS011;23489;49.600;6.138;2023-02-01T05:40:59;14.60;;;5.88;;
37645;SDS011;23489;49.600;6.138;2023-02-01T05:43:25;17.25;;;5.47;;
37645;SDS011;23489;49.600;6.138;2023-02-01T05:45:51;17.65;;;5.10;;
37645;SDS011;23489;49.600;6.138;2023-02-01T05:48:17;15.05;;;5.10;;
37645;SDS011;23489;49.600;6.138;2023-02-01T05:50:43;15.63;;;5.53;;
37645;SDS011;23489;49.600;6.138;2023-02-01T05:53:09;14.93;;;4.95;;
37645;SDS011;23489;49.600;6.138;2023-02-01T05:55:36;18.40;;;5.50;;
37645;SDS011;23489;49.600;6.138;2023-02-01T05:58:02;14.35;;;5.00;;
37645;SDS011;23489;49.600;6.138;2023-02-01T06:00:28;11.93;;;4.88;;
37645;SDS011;23489;49.600;6.138;2023-02-01T06:02:54;14.90;;;4.57;;
37645;SDS011;23489;49.600;6.138;2023-02-01T06:05:19;15.07;;;5.30;;
37645;SDS011;23489;49.600;6.138;2023-02-01T06:07:45;18.70;;;4.78;;
37645;SDS011;23489;49.600;6.138;2023-02-01T06:10:11;15.43;;;5.72;;
37645;SDS011;23489;49.600;6.138;2023-02-01T06:12:37;11.75;;;5.10;;
37645;SDS011;23489;49.600;6.138;2023-02-01T06:15:03;15.90;;;4.55;;
37645;SDS011;23489;49.600;6.138;2023-02-01T06:17:29;12.07;;;4.35;;
37645;SDS011;23489;49.600;6.138;2023-02-01T06:19:54;13.95;;;4.93;;
37645;SDS011;23489;49.600;6.138;2023-02-01T06:22:20;15.55;;;4.30;;
37645;SDS011;23489;49.600;6.138;2023-02-01T06:24:47;18.77;;;4.95;;
37645;SDS011;23489;49.600;6.138;2023-02-01T06:27:13;14.60;;;4.47;;
37645;SDS011;23489;49.600;6.138;2023-02-01T06:29:39;16.13;;;4.40;;
37645;SDS011;23489;49.600;6.138;2023-02-01T06:32:05;18.17;;;5.13;;
37645;SDS011;23489;49.600;6.138;2023-02-01T06:34:31;15.00;;;4.43;;
37645;SDS011;23489;49.600;6.138;2023-02-01T06:36:57;14.95;;;4.22;;
37645;SDS011;23489;49.600;6.138;2023-02-01T06:39:22;16.50;;;4.35;;
37645;SDS011;23489;49.600;6.138;2023-02-01T06:41:48;14.27;;;3.90;;
37645;SDS011;23489;49.600;6.138;2023-02-01T06:44:14;15.05;;;3.78;;
37645;SDS011;23489;49.600;6.138;2023-02-01T06:46:40;14.48;;;4.00;;
37645;SDS011;23489;49.600;6.138;2023-02-01T06:49:06;11.90;;;4.13;;
37645;SDS011;23489;49.600;6.138;2023-02-01T06:51:33;16.33;;;4.90;;
37645;SDS011;23489;49.600;6.138;2023-02-01T06:53:59;14.75;;;3.55;;
37645;SDS011;23489;49.600;6.138;2023-02-01T06:56:25;16.65;;;4.38;;
37645;SDS011;23489;49.600;6.138;2023-02-01T06:58:51;15.90;;;4.30;;
37645;SDS011;23489;49.600;6.138;2023-02-01T07:01:17;11.27;;;4.57;;
37645;SDS011;23489;49.600;6.138;2023-02-01T07:03:46;12.63;;;3.55;;
37645;SDS011;23489;49.600;6.138;2023-02-01T07:06:13;16.67;;;4.45;;
37645;SDS011;23489;49.600;6.138;2023-02-01T07:08:39;15.90;;;3.53;;
37645;SDS011;23489;49.600;6.138;2023-02-01T07:11:06;16.88;;;4.13;;
37645;SDS011;23489;49.600;6.138;2023-02-01T07:13:33;17.25;;;4.47;;
37645;SDS011;23489;49.600;6.138;2023-02-01T07:16:00;16.40;;;4.03;;
37645;SDS011;23489;49.600;6.138;2023-02-01T07:18:28;18.42;;;4.53;;
37645;SDS011;23489;49.600;6.138;2023-02-01T07:20:54;6.53;;;3.50;;
37645;SDS011;23489;49.600;6.138;2023-02-01T07:23:20;14.85;;;3.75;;
37645;SDS011;23489;49.600;6.138;2023-02-01T07:25:47;15.52;;;4.18;;
37645;SDS011;23489;49.600;6.138;2023-02-01T07:28:12;12.98;;;3.90;;
37645;SDS011;23489;49.600;6.138;2023-02-01T07:30:38;15.02;;;3.40;;
37645;SDS011;23489;49.600;6.138;2023-02-01T07:33:04;16.27;;;4.03;;
37645;SDS011;23489;49.600;6.138;2023-02-01T07:35:31;17.60;;;4.38;;
37645;SDS011;23489;49.600;6.138;2023-02-01T07:37:57;14.57;;;4.00;;
37645;SDS011;23489;49.600;6.138;2023-02-01T07:40:22;16.58;;;4.85;;
37645;SDS011;23489;49.600;6.138;2023-02-01T07:42:56;16.67;;;4.15;;
37645;SDS011;23489;49.600;6.138;2023-02-01T07:45:22;16.30;;;4.30;;
37645;SDS011;23489;49.600;6.138;2023-02-01T07:47:48;20.08;;;3.95;;
37645;SDS011;23489;49.600;6.138;2023-02-01T07:50:16;23.95;;;3.70;;
37645;SDS011;23489;49.600;6.138;2023-02-01T07:52:42;13.77;;;3.28;;
37645;SDS011;23489;49.600;6.138;2023-02-01T07:55:08;16.42;;;3.45;;
37645;SDS011;23489;49.600;6.138;2023-02-01T07:57:34;15.13;;;4.13;;
37645;SDS011;23489;49.600;6.138;2023-02-01T07:59:59;15.52;;;3.95;;
37645;SDS011;23489;49.600;6.138;2023-02-01T08:02:43;17.85;;;4.10;;
37645;SDS011;23489;49.600;6.138;2023-02-01T08:05:09;24.05;;;5.30;;
37645;SDS011;23489;49.600;6.138;2023-02-01T08:07:35;19.20;;;3.72;;
37645;SDS011;23489;49.600;6.138;2023-02-01T08:10:00;14.82;;;3.85;;
37645;SDS011;23489;49.600;6.138;2023-02-01T08:12:26;10.32;;;3.78;;
37645;SDS011;23489;49.600;6.138;2023-02-01T08:14:52;11.98;;;3.00;;
37645;SDS011;23489;49.600;6.138;2023-02-01T08:17:19;12.90;;;3.33;;
37645;SDS011;23489;49.600;6.138;2023-02-01T08:19:45;18.92;;;4.07;;
37645;SDS011;23489;49.600;6.138;2023-02-01T08:22:11;15.88;;;3.83;;
37645;SDS011;23489;49.600;6.138;2023-02-01T08:24:37;16.08;;;3.53;;
37645;SDS011;23489;49.600;6.138;2023-02-01T08:27:05;15.32;;;3.67;;
37645;SDS011;23489;49.600;6.138;2023-02-01T08:29:31;15.98;;;3.55;;
37645;SDS011;23489;49.600;6.138;2023-02-01T08:31:56;11.48;;;2.90;;
37645;SDS011;23489;49.600;6.138;2023-02-01T08:34:22;16.27;;;3.85;;
37645;SDS011;23489;49.600;6.138;2023-02-01T08:36:48;21.08;;;4.07;;
37645;SDS011;23489;49.600;6.138;2023-02-01T08:39:13;14.93;;;3.40;;
37645;SDS011;23489;49.600;6.138;2023-02-01T08:41:39;14.95;;;3.65;;
37645;SDS011;23489;49.600;6.138;2023-02-01T08:44:07;20.27;;;4.15;;
37645;SDS011;23489;49.600;6.138;2023-02-01T08:46:33;12.07;;;3.38;;
37645;SDS011;23489;49.600;6.138;2023-02-01T08:48:58;7.72;;;3.63;;
37645;SDS011;23489;49.600;6.138;2023-02-01T08:51:24;10.63;;;3.00;;
37645;SDS011;23489;49.600;6.138;2023-02-01T08:53:50;10.15;;;3.17;;
37645;SDS011;23489;49.600;6.138;2023-02-01T08:56:17;14.57;;;3.75;;
37645;SDS011;23489;49.600;6.138;2023-02-01T08:58:44;14.52;;;3.30;;
37645;SDS011;23489;49.600;6.138;2023-02-01T09:01:12;20.13;;;3.67;;
37645;SDS011;23489;49.600;6.138;2023-02-01T09:03:40;16.50;;;3.30;;
37645;SDS011;23489;49.600;6.138;2023-02-01T09:06:06;13.52;;;5.60;;
37645;SDS011;23489;49.600;6.138;2023-02-01T09:08:34;15.25;;;3.83;;
37645;SDS011;23489;49.600;6.138;2023-02-01T09:11:00;10.85;;;3.33;;
37645;SDS011;23489;49.600;6.138;2023-02-01T09:13:31;16.27;;;3.47;;
37645;SDS011;23489;49.600;6.138;2023-02-01T09:15:56;17.73;;;4.03;;
37645;SDS011;23489;49.600;6.138;2023-02-01T09:18:24;15.60;;;3.78;;
37645;SDS011;23489;49.600;6.138;2023-02-01T09:20:51;13.85;;;3.80;;
37645;SDS011;23489;49.600;6.138;2023-02-01T09:23:16;16.75;;;3.72;;
37645;SDS011;23489;49.600;6.138;2023-02-01T09:25:42;8.60;;;2.92;;
37645;SDS011;23489;49.600;6.138;2023-02-01T09:28:08;11.43;;;3.47;;
37645;SDS011;23489;49.600;6.138;2023-02-01T09:30:34;10.13;;;3.45;;
37645;SDS011;23489;49.600;6.138;2023-02-01T09:33:01;15.00;;;3.78;;
37645;SDS011;23489;49.600;6.138;2023-02-01T09:35:27;13.75;;;3.65;;
37645;SDS011;23489;49.600;6.138;2023-02-01T09:37:53;10.57;;;3.25;;
37645;SDS011;23489;49.600;6.138;2023-02-01T09:40:19;12.73;;;3.97;;
37645;SDS011;23489;49.600;6.138;2023-02-01T09:45:24;16.48;;;3.63;;
37645;SDS011;23489;49.600;6.138;2023-02-01T09:48:00;10.50;;;3.15;;
37645;SDS011;23489;49.600;6.138;2023-02-01T09:50:39;17.60;;;3.78;;
37645;SDS011;23489;49.600;6.138;2023-02-01T09:53:14;16.90;;;4.00;;
37645;SDS011;23489;49.600;6.138;2023-02-01T09:55:56;18.38;;;4.13;;
37645;SDS011;23489;49.600;6.138;2023-02-01T09:58:55;16.88;;;3.85;;
37645;SDS011;23489;49.600;6.138;2023-02-01T10:01:35;20.88;;;3.97;;
37645;SDS011;23489;49.600;6.138;2023-02-01T10:04:05;11.85;;;3.45;;
37645;SDS011;23489;49.600;6.138;2023-02-01T10:06:49;20.00;;;3.80;;
37645;SDS011;23489;49.600;6.138;2023-02-01T10:09:35;20.33;;;3.70;;
37645;SDS011;23489;49.600;6.138;2023-02-01T10:12:33;13.00;;;3.63;;
37645;SDS011;23489;49.600;6.138;2023-02-01T10:21:16;13.48;;;3.30;;
37645;SDS011;23489;49.600;6.138;2023-02-01T10:24:11;13.80;;;3.38;;
37645;SDS011;23489;49.600;6.138;2023-02-01T10:26:51;11.45;;;3.10;;
37645;SDS011;23489;49.600;6.138;2023-02-01T10:29:25;18.27;;;3.88;;
37645;SDS011;23489;49.600;6.138;2023-02-01T10:31:59;12.68;;;3.33;;
37645;SDS011;23489;49.600;6.138;2023-02-01T10:34:30;17.33;;;3.15;;
37645;SDS011;23489;49.600;6.138;2023-02-01T10:39:35;10.73;;;3.63;;
37645;SDS011;23489;49.600;6.138;2023-02-01T10:42:02;15.50;;;3.30;;
37645;SDS011;23489;49.600;6.138;2023-02-01T10:44:28;12.05;;;3.15;;
37645;SDS011;23489;49.600;6.138;2023-02-01T10:46:56;9.45;;;2.92;;
37645;SDS011;23489;49.600;6.138;2023-02-01T10:49:38;9.25;;;2.92;;
37645;SDS011;23489;49.600;6.138;2023-02-01T10:52:31;17.10;;;3.47;;
37645;SDS011;23489;49.600;6.138;2023-02-01T10:58:15;13.75;;;3.80;;
37645;SDS011;23489;49.600;6.138;2023-02-01T11:00:53;15.35;;;2.88;;
37645;SDS011;23489;49.600;6.138;2023-02-01T11:06:17;11.85;;;3.67;;
37645;SDS011;23489;49.600;6.138;2023-02-01T11:08:53;16.88;;;3.10;;
37645;SDS011;23489;49.600;6.138;2023-02-01T11:11:21;20.08;;;4.00;;
37645;SDS011;23489;49.600;6.138;2023-02-01T11:16:20;12.70;;;3.15;;
37645;SDS011;23489;49.600;6.138;2023-02-01T11:18:46;14.70;;;3.33;;
37645;SDS011;23489;49.600;6.138;2023-02-01T11:21:19;15.60;;;3.42;;
37645;SDS011;23489;49.600;6.138;2023-02-01T11:23:46;13.38;;;3.83;;
37645;SDS011;23489;49.600;6.138;2023-02-01T11:26:13;15.70;;;3.63;;
37645;SDS011;23489;49.600;6.138;2023-02-01T11:28:47;22.48;;;4.15;;
37645;SDS011;23489;49.600;6.138;2023-02-01T11:31:18;14.15;;;3.55;;
37645;SDS011;23489;49.600;6.138;2023-02-01T11:33:48;21.60;;;3.78;;
37645;SDS011;23489;49.600;6.138;2023-02-01T11:36:20;18.10;;;3.85;;
37645;SDS011;23489;49.600;6.138;2023-02-01T11:38:54;14.43;;;3.25;;
37645;SDS011;23489;49.600;6.138;2023-02-01T11:41:34;12.45;;;3.67;;
37645;SDS011;23489;49.600;6.138;2023-02-01T11:44:21;10.25;;;3.10;;
37645;SDS011;23489;49.600;6.138;2023-02-01T11:49:54;20.83;;;3.47;;
37645;SDS011;23489;49.600;6.138;2023-02-01T11:52:26;12.50;;;3.30;;
37645;SDS011;23489;49.600;6.138;2023-02-01T11:58:09;14.13;;;4.25;;
37645;SDS011;23489;49.600;6.138;2023-02-01T12:07:10;16.27;;;3.80;;
37645;SDS011;23489;49.600;6.138;2023-02-01T12:09:52;13.13;;;4.32;;
37645;SDS011;23489;49.600;6.138;2023-02-01T12:12:36;21.33;;;3.75;;
37645;SDS011;23489;49.600;6.138;2023-02-01T12:15:12;16.95;;;3.65;;
37645;SDS011;23489;49.600;6.138;2023-02-01T12:26:38;13.23;;;3.47;;
37645;SDS011;23489;49.600;6.138;2023-02-01T12:29:25;15.85;;;3.13;;
37645;SDS011;23489;49.600;6.138;2023-02-01T12:37:19;18.15;;;3.30;;
37645;SDS011;23489;49.600;6.138;2023-02-01T12:39:58;15.30;;;3.70;;
37645;SDS011;23489;49.600;6.138;2023-02-01T12:42:38;12.63;;;3.35;;
37645;SDS011;23489;49.600;6.138;2023-02-01T12:47:59;14.82;;;3.95;;
37645;SDS011;23489;49.600;6.138;2023-02-01T12:50:45;13.77;;;3.33;;
37645;SDS011;23489;49.600;6.138;2023-02-01T12:53:21;14.32;;;3.15;;
37645;SDS011;23489;49.600;6.138;2023-02-01T12:55:55;13.93;;;3.30;;
37645;SDS011;23489;49.600;6.138;2023-02-01T12:58:27;13.75;;;3.00;;
37645;SDS011;23489;49.600;6.138;2023-02-01T13:01:05;16.15;;;3.90;;
37645;SDS011;23489;49.600;6.138;2023-02-01T13:03:52;13.85;;;3.40;;
37645;SDS011;23489;49.600;6.138;2023-02-01T13:06:39;13.98;;;3.65;;
37645;SDS011;23489;49.600;6.138;2023-02-01T13:11:44;17.38;;;3.65;;
37645;SDS011;23489;49.600;6.138;2023-02-01T13:14:19;14.20;;;3.30;;
37645;SDS011;23489;49.600;6.138;2023-02-01T13:17:37;13.73;;;3.22;;
37645;SDS011;23489;49.600;6.138;2023-02-01T13:25:35;13.77;;;2.92;;
37645;SDS011;23489;49.600;6.138;2023-02-01T13:28:13;14.40;;;2.88;;
37645;SDS011;23489;49.600;6.138;2023-02-01T13:33:37;17.20;;;2.90;;
37645;SDS011;23489;49.600;6.138;2023-02-01T13:36:30;9.63;;;2.58;;
37645;SDS011;23489;49.600;6.138;2023-02-01T13:39:19;13.25;;;3.22;;
37645;SDS011;23489;49.600;6.138;2023-02-01T13:41:52;11.30;;;2.90;;
37645;SDS011;23489;49.600;6.138;2023-02-01T13:44:28;7.88;;;2.42;;
37645;SDS011;23489;49.600;6.138;2023-02-01T13:47:03;10.40;;;3.13;;
37645;SDS011;23489;49.600;6.138;2023-02-01T13:49:38;13.40;;;2.85;;
37645;SDS011;23489;49.600;6.138;2023-02-01T13:52:06;12.93;;;2.75;;
37645;SDS011;23489;49.600;6.138;2023-02-01T13:54:44;11.15;;;2.55;;
37645;SDS011;23489;49.600;6.138;2023-02-01T13:57:28;10.25;;;2.90;;
37645;SDS011;23489;49.600;6.138;2023-02-01T14:00:07;15.05;;;2.97;;
37645;SDS011;23489;49.600;6.138;2023-02-01T14:02:49;9.50;;;2.50;;
37645;SDS011;23489;49.600;6.138;2023-02-01T14:13:22;5.60;;;2.10;;
37645;SDS011;23489;49.600;6.138;2023-02-01T14:29:03;10.88;;;2.70;;
37645;SDS011;23489;49.600;6.138;2023-02-01T14:37:04;13.45;;;3.03;;
37645;SDS011;23489;49.600;6.138;2023-02-01T14:39:48;14.40;;;3.00;;
37645;SDS011;23489;49.600;6.138;2023-02-01T14:44:47;10.55;;;2.88;;
37645;SDS011;23489;49.600;6.138;2023-02-01T14:52:20;15.10;;;3.60;;
37645;SDS011;23489;49.600;6.138;2023-02-01T14:54:54;13.48;;;3.03;;
37645;SDS011;23489;49.600;6.138;2023-02-01T14:57:23;7.35;;;2.72;;
37645;SDS011;23489;49.600;6.138;2023-02-01T14:59:53;12.25;;;3.25;;
37645;SDS011;23489;49.600;6.138;2023-02-01T15:02:31;8.48;;;2.65;;
37645;SDS011;23489;49.600;6.138;2023-02-01T15:05:01;9.77;;;2.65;;
37645;SDS011;23489;49.600;6.138;2023-02-01T15:07:27;9.27;;;2.72;;
37645;SDS011;23489;49.600;6.138;2023-02-01T15:09:55;11.63;;;3.05;;
37645;SDS011;23489;49.600;6.138;2023-02-01T15:12:26;8.60;;;2.95;;
37645;SDS011;23489;49.600;6.138;2023-02-01T15:17:58;13.02;;;2.83;;
37645;SDS011;23489;49.600;6.138;2023-02-01T15:20:31;14.10;;;2.97;;
37645;SDS011;23489;49.600;6.138;2023-02-01T15:22:59;12.73;;;2.78;;
37645;SDS011;23489;49.600;6.138;2023-02-01T15:25:27;12.60;;;2.72;;
37645;SDS011;23489;49.600;6.138;2023-02-01T15:27:55;20.00;;;3.47;;
37645;SDS011;23489;49.600;6.138;2023-02-01T15:30:23;13.93;;;2.88;;
37645;SDS011;23489;49.600;6.138;2023-02-01T15:41:31;22.05;;;3.42;;
37645;SDS011;23489;49.600;6.138;2023-02-01T15:46:08;13.77;;;3.22;;
37645;SDS011;23489;49.600;6.138;2023-02-01T15:48:54;15.90;;;3.53;;
37645;SDS011;23489;49.600;6.138;2023-02-01T15:51:21;14.27;;;2.83;;
37645;SDS011;23489;49.600;6.138;2023-02-01T15:54:02;13.25;;;3.13;;
37645;SDS011;23489;49.600;6.138;2023-02-01T15:56:37;8.15;;;2.72;;
37645;SDS011;23489;49.600;6.138;2023-02-01T15:59:12;11.65;;;2.78;;
37645;SDS011;23489;49.600;6.138;2023-02-01T16:01:42;19.02;;;3.65;;
37645;SDS011;23489;49.600;6.138;2023-02-01T16:04:27;13.40;;;3.45;;
37645;SDS011;23489;49.600;6.138;2023-02-01T16:07:02;11.70;;;2.90;;
37645;SDS011;23489;49.600;6.138;2023-02-01T16:09:50;13.60;;;3.45;;
37645;SDS011;23489;49.600;6.138;2023-02-01T16:12:22;14.45;;;2.83;;
37645;SDS011;23489;49.600;6.138;2023-02-01T16:15:10;10.80;;;2.60;;
37645;SDS011;23489;49.600;6.138;2023-02-01T16:17:35;9.55;;;2.35;;
37645;SDS011;23489;49.600;6.138;2023-02-01T16:20:01;10.60;;;2.90;;
37645;SDS011;23489;49.600;6.138;2023-02-01T16:22:27;18.60;;;3.40;;
37645;SDS011;23489;49.600;6.138;2023-02-01T16:24:52;18.75;;;3.83;;
37645;SDS011;23489;49.600;6.138;2023-02-01T16:27:18;17.15;;;2.95;;
37645;SDS011;23489;49.600;6.138;2023-02-01T16:29:44;19.35;;;3.45;;
37645;SDS011;23489;49.600;6.138;2023-02-01T16:32:16;13.18;;;3.22;;
37645;SDS011;23489;49.600;6.138;2023-02-01T16:34:45;11.15;;;2.55;;
37645;SDS011;23489;49.600;6.138;2023-02-01T16:37:20;17.50;;;3.17;;
37645;SDS011;23489;49.600;6.138;2023-02-01T16:39:47;14.57;;;3.10;;
37645;SDS011;23489;49.600;6.138;2023-02-01T16:42:13;9.70;;;3.45;;
37645;SDS011;23489;49.600;6.138;2023-02-01T16:44:40;10.82;;;2.92;;
37645;SDS011;23489;49.600;6.138;2023-02-01T16:47:16;16.73;;;3.33;;
37645;SDS011;23489;49.600;6.138;2023-02-01T16:49:44;11.52;;;3.30;;
37645;SDS011;23489;49.600;6.138;2023-02-01T16:52:12;12.57;;;3.63;;
37645;SDS011;23489;49.600;6.138;2023-02-01T16:54:41;10.18;;;3.05;;
37645;SDS011;23489;49.600;6.138;2023-02-01T16:57:10;14.60;;;3.45;;
37645;SDS011;23489;49.600;6.138;2023-02-01T16:59:41;18.17;;;6.20;;
37645;SDS011;23489;49.600;6.138;2023-02-01T17:02:14;12.98;;;3.90;;
37645;SDS011;23489;49.600;6.138;2023-02-01T17:04:44;11.30;;;3.25;;
37645;SDS011;23489;49.600;6.138;2023-02-01T17:07:13;12.65;;;3.45;;
37645;SDS011;23489;49.600;6.138;2023-02-01T17:09:41;11.35;;;2.90;;
37645;SDS011;23489;49.600;6.138;2023-02-01T17:12:09;12.80;;;3.45;;
37645;SDS011;23489;49.600;6.138;2023-02-01T17:14:51;13.20;;;3.20;;